sensor_id;sensor_type;location;lat;lon;timestamp;P1;durP1;ratioP1;P2;durP2;ratioP2
9042;SDS011;4556;49.150;8.808;2022-08-21T00:01:51;4.03;;;2.20;;
9042;SDS011;4556;49.150;8.808;2022-08-21T00:04:19;3.07;;;2.40;;
9042;SDS011;4556;49.150;8.808;2022-08-21T00:06:46;4.37;;;2.40;;
9042;SDS011;4556;49.150;8.808;2022-08-21T00:09:15;2.77;;;2.10;;
9042;SDS011;4556;49.150;8.808;2022-08-21T00:11:42;3.43;;;2.33;;
9042;SDS011;4556;49.150;8.808;2022-08-21T00:14:10;3.87;;;2.33;;
9042;SDS011;4556;49.150;8.808;2022-08-21T00:16:38;3.60;;;2.57;;
9042;SDS011;4556;49.150;8.808;2022-08-21T00:19:06;4.27;;;2.80;;
9042;SDS011;4556;49.150;8.808;2022-08-21T00:21:34;2.97;;;2.67;;
9042;SDS011;4556;49.150;8.808;2022-08-21T00:24:01;3.43;;;2.40;;
9042;SDS011;4556;49.150;8.808;2022-08-21T00:26:30;3.00;;;2.30;;
9042;SDS011;4556;49.150;8.808;2022-08-21T00:28:58;3.40;;;2.80;;
9042;SDS011;4556;49.150;8.808;2022-08-21T00:31:25;5.50;;;2.50;;
9042;SDS011;4556;49.150;8.808;2022-08-21T00:33:52;3.97;;;2.60;;
9042;SDS011;4556;49.150;8.808;2022-08-21T00:36:19;2.97;;;2.67;;
9042;SDS011;4556;49.150;8.808;2022-08-21T00:38:46;3.37;;;2.43;;
9042;SDS011;4556;49.150;8.808;2022-08-21T00:41:13;3.40;;;2.67;;
9042;SDS011;4556;49.150;8.808;2022-08-21T00:43:41;3.53;;;2.47;;
9042;SDS011;4556;49.150;8.808;2022-08-21T00:46:08;3.37;;;2.33;;
9042;SDS011;4556;49.150;8.808;2022-08-21T00:48:36;4.73;;;2.67;;
9042;SDS011;4556;49.150;8.808;2022-08-21T00:51:05;3.77;;;2.53;;
9042;SDS011;4556;49.150;8.808;2022-08-21T00:53:34;5.57;;;2.50;;
9042;SDS011;4556;49.150;8.808;2022-08-21T00:56:04;2.97;;;2.63;;
9042;SDS011;4556;49.150;8.808;2022-08-21T00:58:33;4.20;;;2.60;;
9042;SDS011;4556;49.150;8.808;2022-08-21T01:01:04;3.97;;;2.93;;
9042;SDS011;4556;49.150;8.808;2022-08-21T01:03:32;5.27;;;3.00;;
9042;SDS011;4556;49.150;8.808;2022-08-21T01:06:00;3.73;;;2.80;;
9042;SDS011;4556;49.150;8.808;2022-08-21T01:08:28;3.57;;;2.83;;
9042;SDS011;4556;49.150;8.808;2022-08-21T01:10:56;3.03;;;2.27;;
9042;SDS011;4556;49.150;8.808;2022-08-21T01:13:23;4.03;;;2.70;;
9042;SDS011;4556;49.150;8.808;2022-08-21T01:15:51;3.83;;;2.50;;
9042;SDS011;4556;49.150;8.808;2022-08-21T01:18:22;4.77;;;2.83;;
9042;SDS011;4556;49.150;8.808;2022-08-21T01:23:36;4.27;;;2.70;;
9042;SDS011;4556;49.150;8.808;2022-08-21T01:26:05;3.80;;;3.00;;
9042;SDS011;4556;49.150;8.808;2022-08-21T01:28:34;3.83;;;2.23;;
9042;SDS011;4556;49.150;8.808;2022-08-21T01:31:06;5.50;;;2.30;;
9042;SDS011;4556;49.150;8.808;2022-08-21T01:33:35;4.20;;;2.80;;
9042;SDS011;4556;49.150;8.808;2022-08-21T01:36:02;5.67;;;2.87;;
9042;SDS011;4556;49.150;8.808;2022-08-21T01:38:31;4.30;;;2.90;;
9042;SDS011;4556;49.150;8.808;2022-08-21T01:40:58;4.87;;;2.83;;
9042;SDS011;4556;49.150;8.808;2022-08-21T01:43:26;3.90;;;2.70;;
9042;SDS011;4556;49.150;8.808;2022-08-21T01:45:53;3.33;;;2.57;;
9042;SDS011;4556;49.150;8.808;2022-08-21T01:48:20;3.20;;;2.70;;
9042;SDS011;4556;49.150;8.808;2022-08-21T01:50:47;4.50;;;2.80;;
9042;SDS011;4556;49.150;8.808;2022-08-21T01:53:14;3.80;;;2.97;;
9042;SDS011;4556;49.150;8.808;2022-08-21T01:55:42;4.93;;;2.70;;
9042;SDS011;4556;49.150;8.808;2022-08-21T01:58:10;3.97;;;2.70;;
9042;SDS011;4556;49.150;8.808;2022-08-21T02:00:37;6.47;;;2.70;;
9042;SDS011;4556;49.150;8.808;2022-08-21T02:03:04;4.20;;;2.83;;
9042;SDS011;4556;49.150;8.808;2022-08-21T02:05:31;3.30;;;2.77;;
9042;SDS011;4556;49.150;8.808;2022-08-21T02:07:59;3.63;;;2.83;;
9042;SDS011;4556;49.150;8.808;2022-08-21T02:10:28;4.87;;;3.30;;
9042;SDS011;4556;49.150;8.808;2022-08-21T02:12:59;4.30;;;2.93;;
9042;SDS011;4556;49.150;8.808;2022-08-21T02:15:27;3.30;;;3.00;;
9042;SDS011;4556;49.150;8.808;2022-08-21T02:17:56;4.33;;;2.93;;
9042;SDS011;4556;49.150;8.808;2022-08-21T02:20:27;5.87;;;3.03;;
9042;SDS011;4556;49.150;8.808;2022-08-21T02:22:55;3.50;;;2.77;;
9042;SDS011;4556;49.150;8.808;2022-08-21T02:25:24;4.20;;;2.80;;
9042;SDS011;4556;49.150;8.808;2022-08-21T02:27:52;6.10;;;3.10;;
9042;SDS011;4556;49.150;8.808;2022-08-21T02:30:21;4.53;;;2.97;;
9042;SDS011;4556;49.150;8.808;2022-08-21T02:32:50;5.53;;;3.63;;
9042;SDS011;4556;49.150;8.808;2022-08-21T02:35:17;4.57;;;3.27;;
9042;SDS011;4556;49.150;8.808;2022-08-21T02:37:45;4.80;;;3.10;;
9042;SDS011;4556;49.150;8.808;2022-08-21T02:40:15;5.03;;;3.37;;
9042;SDS011;4556;49.150;8.808;2022-08-21T02:42:43;5.47;;;3.10;;
9042;SDS011;4556;49.150;8.808;2022-08-21T02:45:11;5.20;;;3.03;;
9042;SDS011;4556;49.150;8.808;2022-08-21T02:47:42;4.57;;;3.50;;
9042;SDS011;4556;49.150;8.808;2022-08-21T02:50:16;4.47;;;3.23;;
9042;SDS011;4556;49.150;8.808;2022-08-21T02:52:45;5.17;;;2.90;;
9042;SDS011;4556;49.150;8.808;2022-08-21T02:55:12;3.80;;;2.90;;
9042;SDS011;4556;49.150;8.808;2022-08-21T02:57:40;4.60;;;3.17;;
9042;SDS011;4556;49.150;8.808;2022-08-21T03:00:08;4.10;;;3.27;;
9042;SDS011;4556;49.150;8.808;2022-08-21T03:02:36;4.80;;;3.23;;
9042;SDS011;4556;49.150;8.808;2022-08-21T03:05:06;4.30;;;2.90;;
9042;SDS011;4556;49.150;8.808;2022-08-21T03:07:35;3.90;;;3.27;;
9042;SDS011;4556;49.150;8.808;2022-08-21T03:10:02;5.67;;;3.50;;
9042;SDS011;4556;49.150;8.808;2022-08-21T03:12:30;4.63;;;3.20;;
9042;SDS011;4556;49.150;8.808;2022-08-21T03:14:56;3.57;;;3.20;;
9042;SDS011;4556;49.150;8.808;2022-08-21T03:17:24;4.57;;;3.33;;
9042;SDS011;4556;49.150;8.808;2022-08-21T03:19:52;5.20;;;3.30;;
9042;SDS011;4556;49.150;8.808;2022-08-21T03:22:21;4.80;;;3.53;;
9042;SDS011;4556;49.150;8.808;2022-08-21T03:24:48;5.43;;;3.43;;
9042;SDS011;4556;49.150;8.808;2022-08-21T03:27:16;4.23;;;3.47;;
9042;SDS011;4556;49.150;8.808;2022-08-21T03:29:44;4.80;;;3.60;;
9042;SDS011;4556;49.150;8.808;2022-08-21T03:32:11;3.73;;;3.33;;
9042;SDS011;4556;49.150;8.808;2022-08-21T03:34:38;7.63;;;3.33;;
9042;SDS011;4556;49.150;8.808;2022-08-21T03:37:06;4.67;;;3.70;;
9042;SDS011;4556;49.150;8.808;2022-08-21T03:39:36;4.80;;;3.63;;
9042;SDS011;4556;49.150;8.808;2022-08-21T03:42:04;5.93;;;3.70;;
9042;SDS011;4556;49.150;8.808;2022-08-21T03:44:31;4.73;;;3.20;;
9042;SDS011;4556;49.150;8.808;2022-08-21T03:46:59;5.37;;;3.47;;
9042;SDS011;4556;49.150;8.808;2022-08-21T03:49:27;3.90;;;3.47;;
9042;SDS011;4556;49.150;8.808;2022-08-21T03:51:54;4.63;;;3.30;;
9042;SDS011;4556;49.150;8.808;2022-08-21T03:54:21;4.20;;;3.40;;
9042;SDS011;4556;49.150;8.808;2022-08-21T03:56:50;4.50;;;3.40;;
9042;SDS011;4556;49.150;8.808;2022-08-21T03:59:17;3.83;;;3.30;;
9042;SDS011;4556;49.150;8.808;2022-08-21T04:01:52;4.90;;;3.50;;
9042;SDS011;4556;49.150;8.808;2022-08-21T04:04:27;5.53;;;4.07;;
9042;SDS011;4556;49.150;8.808;2022-08-21T04:06:54;5.20;;;3.60;;
9042;SDS011;4556;49.150;8.808;2022-08-21T04:09:22;5.27;;;3.33;;
9042;SDS011;4556;49.150;8.808;2022-08-21T04:11:51;6.77;;;3.87;;
9042;SDS011;4556;49.150;8.808;2022-08-21T04:14:18;4.20;;;3.50;;
9042;SDS011;4556;49.150;8.808;2022-08-21T04:16:46;4.13;;;3.33;;
9042;SDS011;4556;49.150;8.808;2022-08-21T04:19:13;4.87;;;3.50;;
9042;SDS011;4556;49.150;8.808;2022-08-21T04:21:40;6.10;;;3.63;;
9042;SDS011;4556;49.150;8.808;2022-08-21T04:24:08;7.13;;;3.87;;
9042;SDS011;4556;49.150;8.808;2022-08-21T04:26:36;4.60;;;3.70;;
9042;SDS011;4556;49.150;8.808;2022-08-21T04:29:06;5.43;;;3.70;;
9042;SDS011;4556;49.150;8.808;2022-08-21T04:31:33;7.60;;;3.80;;
9042;SDS011;4556;49.150;8.808;2022-08-21T04:34:01;5.03;;;3.30;;
9042;SDS011;4556;49.150;8.808;2022-08-21T04:36:29;6.37;;;3.63;;
9042;SDS011;4556;49.150;8.808;2022-08-21T04:38:57;6.47;;;3.67;;
9042;SDS011;4556;49.150;8.808;2022-08-21T04:41:24;5.30;;;3.33;;
9042;SDS011;4556;49.150;8.808;2022-08-21T04:43:51;6.03;;;4.00;;
9042;SDS011;4556;49.150;8.808;2022-08-21T04:46:21;3.70;;;3.17;;
9042;SDS011;4556;49.150;8.808;2022-08-21T04:48:49;4.87;;;3.83;;
9042;SDS011;4556;49.150;8.808;2022-08-21T04:51:16;5.43;;;4.00;;
9042;SDS011;4556;49.150;8.808;2022-08-21T04:53:46;7.00;;;4.13;;
9042;SDS011;4556;49.150;8.808;2022-08-21T04:56:19;6.13;;;4.10;;
9042;SDS011;4556;49.150;8.808;2022-08-21T04:58:49;7.20;;;4.33;;
9042;SDS011;4556;49.150;8.808;2022-08-21T05:01:19;4.40;;;3.67;;
9042;SDS011;4556;49.150;8.808;2022-08-21T05:03:50;5.30;;;3.90;;
9042;SDS011;4556;49.150;8.808;2022-08-21T05:06:20;5.37;;;3.70;;
9042;SDS011;4556;49.150;8.808;2022-08-21T05:08:48;4.67;;;3.77;;
9042;SDS011;4556;49.150;8.808;2022-08-21T05:11:17;4.77;;;4.13;;
9042;SDS011;4556;49.150;8.808;2022-08-21T05:13:45;6.00;;;4.47;;
9042;SDS011;4556;49.150;8.808;2022-08-21T05:16:12;5.40;;;4.40;;
9042;SDS011;4556;49.150;8.808;2022-08-21T05:18:43;6.07;;;4.27;;
9042;SDS011;4556;49.150;8.808;2022-08-21T05:21:11;6.80;;;4.27;;
9042;SDS011;4556;49.150;8.808;2022-08-21T05:23:38;5.13;;;4.00;;
9042;SDS011;4556;49.150;8.808;2022-08-21T05:26:05;5.83;;;4.43;;
9042;SDS011;4556;49.150;8.808;2022-08-21T05:28:31;4.90;;;4.40;;
9042;SDS011;4556;49.150;8.808;2022-08-21T05:30:59;6.23;;;4.60;;
9042;SDS011;4556;49.150;8.808;2022-08-21T05:33:26;5.30;;;4.53;;
9042;SDS011;4556;49.150;8.808;2022-08-21T05:35:55;7.63;;;4.17;;
9042;SDS011;4556;49.150;8.808;2022-08-21T05:38:22;4.73;;;4.03;;
9042;SDS011;4556;49.150;8.808;2022-08-21T05:40:52;5.47;;;4.00;;
9042;SDS011;4556;49.150;8.808;2022-08-21T05:43:19;6.10;;;4.23;;
9042;SDS011;4556;49.150;8.808;2022-08-21T05:45:46;5.07;;;4.00;;
9042;SDS011;4556;49.150;8.808;2022-08-21T05:48:14;6.47;;;3.87;;
9042;SDS011;4556;49.150;8.808;2022-08-21T05:50:42;6.80;;;4.30;;
9042;SDS011;4556;49.150;8.808;2022-08-21T05:53:12;9.47;;;4.53;;
9042;SDS011;4556;49.150;8.808;2022-08-21T05:55:40;4.87;;;3.50;;
9042;SDS011;4556;49.150;8.808;2022-08-21T05:58:07;6.57;;;4.50;;
9042;SDS011;4556;49.150;8.808;2022-08-21T06:00:34;6.77;;;4.70;;
9042;SDS011;4556;49.150;8.808;2022-08-21T06:03:01;6.13;;;4.70;;
9042;SDS011;4556;49.150;8.808;2022-08-21T06:05:29;7.10;;;4.17;;
9042;SDS011;4556;49.150;8.808;2022-08-21T06:07:58;5.80;;;4.40;;
9042;SDS011;4556;49.150;8.808;2022-08-21T06:10:27;7.77;;;4.63;;
9042;SDS011;4556;49.150;8.808;2022-08-21T06:12:56;5.90;;;3.67;;
9042;SDS011;4556;49.150;8.808;2022-08-21T06:15:23;6.10;;;4.00;;
9042;SDS011;4556;49.150;8.808;2022-08-21T06:17:51;5.90;;;3.87;;
9042;SDS011;4556;49.150;8.808;2022-08-21T06:20:19;5.90;;;3.63;;
9042;SDS011;4556;49.150;8.808;2022-08-21T06:22:47;4.57;;;3.30;;
9042;SDS011;4556;49.150;8.808;2022-08-21T06:25:14;5.53;;;3.40;;
9042;SDS011;4556;49.150;8.808;2022-08-21T06:27:42;5.27;;;3.20;;
9042;SDS011;4556;49.150;8.808;2022-08-21T06:30:09;5.23;;;2.90;;
9042;SDS011;4556;49.150;8.808;2022-08-21T06:32:37;6.13;;;3.00;;
9042;SDS011;4556;49.150;8.808;2022-08-21T06:35:05;5.30;;;2.93;;
9042;SDS011;4556;49.150;8.808;2022-08-21T06:37:33;5.87;;;3.17;;
9042;SDS011;4556;49.150;8.808;2022-08-21T06:40:00;4.83;;;2.77;;
9042;SDS011;4556;49.150;8.808;2022-08-21T06:42:38;8.40;;;2.90;;
9042;SDS011;4556;49.150;8.808;2022-08-21T06:45:07;8.90;;;3.10;;
9042;SDS011;4556;49.150;8.808;2022-08-21T06:47:35;4.40;;;2.70;;
9042;SDS011;4556;49.150;8.808;2022-08-21T06:50:02;120.73;;;10.37;;
9042;SDS011;4556;49.150;8.808;2022-08-21T06:52:32;37.30;;;4.20;;
9042;SDS011;4556;49.150;8.808;2022-08-21T06:55:00;5.67;;;2.37;;
9042;SDS011;4556;49.150;8.808;2022-08-21T06:57:28;4.87;;;2.53;;
9042;SDS011;4556;49.150;8.808;2022-08-21T06:59:55;4.40;;;2.57;;
9042;SDS011;4556;49.150;8.808;2022-08-21T07:02:23;4.57;;;2.43;;
9042;SDS011;4556;49.150;8.808;2022-08-21T07:04:50;5.83;;;2.43;;
9042;SDS011;4556;49.150;8.808;2022-08-21T07:07:17;5.93;;;2.30;;
9042;SDS011;4556;49.150;8.808;2022-08-21T07:09:44;7.13;;;3.03;;
9042;SDS011;4556;49.150;8.808;2022-08-21T07:12:11;4.80;;;2.50;;
9042;SDS011;4556;49.150;8.808;2022-08-21T07:14:39;7.50;;;2.43;;
9042;SDS011;4556;49.150;8.808;2022-08-21T07:17:06;5.10;;;2.50;;
9042;SDS011;4556;49.150;8.808;2022-08-21T07:19:34;4.93;;;2.27;;
9042;SDS011;4556;49.150;8.808;2022-08-21T07:22:02;8.00;;;2.40;;
9042;SDS011;4556;49.150;8.808;2022-08-21T07:24:29;6.67;;;2.43;;
9042;SDS011;4556;49.150;8.808;2022-08-21T07:26:56;6.77;;;2.40;;
9042;SDS011;4556;49.150;8.808;2022-08-21T07:29:25;4.17;;;2.23;;
9042;SDS011;4556;49.150;8.808;2022-08-21T07:31:52;6.13;;;2.43;;
9042;SDS011;4556;49.150;8.808;2022-08-21T07:34:19;6.03;;;2.50;;
9042;SDS011;4556;49.150;8.808;2022-08-21T07:36:47;4.73;;;2.57;;
9042;SDS011;4556;49.150;8.808;2022-08-21T07:39:15;5.17;;;2.30;;
9042;SDS011;4556;49.150;8.808;2022-08-21T07:41:43;4.87;;;2.80;;
9042;SDS011;4556;49.150;8.808;2022-08-21T07:44:10;4.60;;;2.30;;
9042;SDS011;4556;49.150;8.808;2022-08-21T07:46:37;4.10;;;2.20;;
9042;SDS011;4556;49.150;8.808;2022-08-21T07:49:04;5.23;;;2.43;;
9042;SDS011;4556;49.150;8.808;2022-08-21T07:51:31;4.90;;;2.10;;
9042;SDS011;4556;49.150;8.808;2022-08-21T07:54:00;4.57;;;2.20;;
9042;SDS011;4556;49.150;8.808;2022-08-21T07:56:29;7.17;;;2.63;;
9042;SDS011;4556;49.150;8.808;2022-08-21T07:58:57;6.37;;;3.10;;
9042;SDS011;4556;49.150;8.808;2022-08-21T08:01:24;7.47;;;2.80;;
9042;SDS011;4556;49.150;8.808;2022-08-21T08:03:51;7.67;;;2.70;;
9042;SDS011;4556;49.150;8.808;2022-08-21T08:06:18;4.43;;;2.30;;
9042;SDS011;4556;49.150;8.808;2022-08-21T08:08:46;5.43;;;2.63;;
9042;SDS011;4556;49.150;8.808;2022-08-21T08:11:14;5.70;;;2.60;;
9042;SDS011;4556;49.150;8.808;2022-08-21T08:13:42;6.13;;;2.50;;
9042;SDS011;4556;49.150;8.808;2022-08-21T08:16:11;7.43;;;2.70;;
9042;SDS011;4556;49.150;8.808;2022-08-21T08:18:39;9.10;;;3.07;;
9042;SDS011;4556;49.150;8.808;2022-08-21T08:21:08;6.73;;;2.80;;
9042;SDS011;4556;49.150;8.808;2022-08-21T08:23:35;6.10;;;2.77;;
9042;SDS011;4556;49.150;8.808;2022-08-21T08:26:02;8.33;;;2.70;;
9042;SDS011;4556;49.150;8.808;2022-08-21T08:28:32;4.63;;;2.37;;
9042;SDS011;4556;49.150;8.808;2022-08-21T08:31:00;6.33;;;2.63;;
9042;SDS011;4556;49.150;8.808;2022-08-21T08:33:27;5.37;;;2.30;;
9042;SDS011;4556;49.150;8.808;2022-08-21T08:35:55;5.93;;;2.50;;
9042;SDS011;4556;49.150;8.808;2022-08-21T08:38:23;6.13;;;2.50;;
9042;SDS011;4556;49.150;8.808;2022-08-21T08:40:52;4.87;;;2.20;;
9042;SDS011;4556;49.150;8.808;2022-08-21T08:43:27;5.93;;;2.90;;
9042;SDS011;4556;49.150;8.808;2022-08-21T08:45:56;6.20;;;2.80;;
9042;SDS011;4556;49.150;8.808;2022-08-21T08:48:31;3.67;;;2.80;;
9042;SDS011;4556;49.150;8.808;2022-08-21T08:51:12;3.83;;;2.30;;
9042;SDS011;4556;49.150;8.808;2022-08-21T08:53:46;7.63;;;2.50;;
9042;SDS011;4556;49.150;8.808;2022-08-21T08:56:18;5.73;;;2.40;;
9042;SDS011;4556;49.150;8.808;2022-08-21T08:58:48;7.37;;;2.57;;
9042;SDS011;4556;49.150;8.808;2022-08-21T09:01:19;5.07;;;2.73;;
9042;SDS011;4556;49.150;8.808;2022-08-21T09:03:50;4.80;;;2.70;;
9042;SDS011;4556;49.150;8.808;2022-08-21T09:06:30;4.67;;;2.70;;
9042;SDS011;4556;49.150;8.808;2022-08-21T09:09:11;5.03;;;2.60;;
9042;SDS011;4556;49.150;8.808;2022-08-21T09:11:48;4.60;;;2.53;;
9042;SDS011;4556;49.150;8.808;2022-08-21T09:14:26;7.17;;;2.73;;
9042;SDS011;4556;49.150;8.808;2022-08-21T09:17:04;4.83;;;2.83;;
9042;SDS011;4556;49.150;8.808;2022-08-21T09:19:44;6.20;;;2.40;;
9042;SDS011;4556;49.150;8.808;2022-08-21T09:22:28;4.87;;;2.40;;
9042;SDS011;4556;49.150;8.808;2022-08-21T09:25:03;3.57;;;2.23;;
9042;SDS011;4556;49.150;8.808;2022-08-21T09:27:39;6.07;;;3.10;;
9042;SDS011;4556;49.150;8.808;2022-08-21T09:30:07;6.03;;;2.97;;
9042;SDS011;4556;49.150;8.808;2022-08-21T09:32:38;4.30;;;2.63;;
9042;SDS011;4556;49.150;8.808;2022-08-21T09:35:07;5.13;;;2.67;;
9042;SDS011;4556;49.150;8.808;2022-08-21T09:37:44;4.23;;;2.83;;
9042;SDS011;4556;49.150;8.808;2022-08-21T09:40:17;5.80;;;3.10;;
9042;SDS011;4556;49.150;8.808;2022-08-21T09:42:56;4.77;;;2.67;;
9042;SDS011;4556;49.150;8.808;2022-08-21T09:45:25;5.57;;;2.53;;
9042;SDS011;4556;49.150;8.808;2022-08-21T09:47:54;6.93;;;2.50;;
9042;SDS011;4556;49.150;8.808;2022-08-21T09:50:22;4.32;;;2.38;;
9042;SDS011;4556;49.150;8.808;2022-08-21T09:52:53;4.80;;;2.47;;
9042;SDS011;4556;49.150;8.808;2022-08-21T09:55:24;6.27;;;2.63;;
9042;SDS011;4556;49.150;8.808;2022-08-21T09:58:16;5.85;;;2.72;;
9042;SDS011;4556;49.150;8.808;2022-08-21T10:00:45;7.50;;;2.90;;
9042;SDS011;4556;49.150;8.808;2022-08-21T10:03:24;6.43;;;2.60;;
9042;SDS011;4556;49.150;8.808;2022-08-21T10:05:53;6.37;;;2.73;;
9042;SDS011;4556;49.150;8.808;2022-08-21T10:08:24;5.83;;;2.63;;
9042;SDS011;4556;49.150;8.808;2022-08-21T10:10:56;5.30;;;2.65;;
9042;SDS011;4556;49.150;8.808;2022-08-21T10:13:31;6.03;;;2.50;;
9042;SDS011;4556;49.150;8.808;2022-08-21T10:16:12;4.10;;;2.15;;
9042;SDS011;4556;49.150;8.808;2022-08-21T10:18:51;8.47;;;2.57;;
9042;SDS011;4556;49.150;8.808;2022-08-21T10:21:31;5.80;;;2.43;;
9042;SDS011;4556;49.150;8.808;2022-08-21T10:24:05;8.50;;;2.88;;
9042;SDS011;4556;49.150;8.808;2022-08-21T10:26:45;5.20;;;2.60;;
9042;SDS011;4556;49.150;8.808;2022-08-21T10:29:24;5.53;;;2.23;;
9042;SDS011;4556;49.150;8.808;2022-08-21T10:32:06;6.35;;;2.20;;
9042;SDS011;4556;49.150;8.808;2022-08-21T10:34:46;4.55;;;2.63;;
9042;SDS011;4556;49.150;8.808;2022-08-21T10:37:21;5.38;;;2.17;;
9042;SDS011;4556;49.150;8.808;2022-08-21T10:39:57;7.40;;;2.57;;
9042;SDS011;4556;49.150;8.808;2022-08-21T10:42:35;6.40;;;2.22;;
9042;SDS011;4556;49.150;8.808;2022-08-21T10:45:09;5.55;;;2.03;;
9042;SDS011;4556;49.150;8.808;2022-08-21T10:47:41;5.27;;;2.30;;
9042;SDS011;4556;49.150;8.808;2022-08-21T10:50:17;5.00;;;2.40;;
9042;SDS011;4556;49.150;8.808;2022-08-21T10:52:58;4.57;;;2.75;;
9042;SDS011;4556;49.150;8.808;2022-08-21T10:55:37;4.90;;;2.45;;
9042;SDS011;4556;49.150;8.808;2022-08-21T10:58:10;6.07;;;2.60;;
9042;SDS011;4556;49.150;8.808;2022-08-21T11:00:40;6.53;;;2.58;;
9042;SDS011;4556;49.150;8.808;2022-08-21T11:03:13;5.20;;;2.73;;
9042;SDS011;4556;49.150;8.808;2022-08-21T11:05:46;6.67;;;2.50;;
9042;SDS011;4556;49.150;8.808;2022-08-21T11:08:17;5.53;;;2.57;;
9042;SDS011;4556;49.150;8.808;2022-08-21T11:10:49;6.57;;;2.50;;
9042;SDS011;4556;49.150;8.808;2022-08-21T11:13:22;5.80;;;2.70;;
9042;SDS011;4556;49.150;8.808;2022-08-21T11:15:56;6.18;;;2.70;;
9042;SDS011;4556;49.150;8.808;2022-08-21T11:18:29;4.70;;;2.47;;
9042;SDS011;4556;49.150;8.808;2022-08-21T11:21:04;5.50;;;2.28;;
9042;SDS011;4556;49.150;8.808;2022-08-21T11:23:41;6.60;;;2.60;;
9042;SDS011;4556;49.150;8.808;2022-08-21T11:26:13;6.32;;;2.17;;
9042;SDS011;4556;49.150;8.808;2022-08-21T11:28:46;5.43;;;2.22;;
9042;SDS011;4556;49.150;8.808;2022-08-21T11:31:23;6.25;;;2.28;;
9042;SDS011;4556;49.150;8.808;2022-08-21T11:34:08;5.10;;;2.13;;
9042;SDS011;4556;49.150;8.808;2022-08-21T11:36:46;6.45;;;2.50;;
9042;SDS011;4556;49.150;8.808;2022-08-21T11:39:22;5.40;;;2.30;;
9042;SDS011;4556;49.150;8.808;2022-08-21T11:41:58;8.20;;;2.70;;
9042;SDS011;4556;49.150;8.808;2022-08-21T11:44:37;7.40;;;2.55;;
9042;SDS011;4556;49.150;8.808;2022-08-21T11:47:15;5.50;;;2.50;;
9042;SDS011;4556;49.150;8.808;2022-08-21T11:49:58;7.78;;;2.25;;
9042;SDS011;4556;49.150;8.808;2022-08-21T11:52:34;4.03;;;2.08;;
9042;SDS011;4556;49.150;8.808;2022-08-21T11:55:07;3.90;;;2.13;;
9042;SDS011;4556;49.150;8.808;2022-08-21T11:57:39;3.53;;;1.87;;
9042;SDS011;4556;49.150;8.808;2022-08-21T12:00:18;4.00;;;2.03;;
9042;SDS011;4556;49.150;8.808;2022-08-21T12:02:49;4.47;;;2.03;;
9042;SDS011;4556;49.150;8.808;2022-08-21T12:05:23;5.65;;;2.13;;
9042;SDS011;4556;49.150;8.808;2022-08-21T12:08:01;5.07;;;2.00;;
9042;SDS011;4556;49.150;8.808;2022-08-21T12:10:32;6.25;;;2.50;;
9042;SDS011;4556;49.150;8.808;2022-08-21T12:13:09;8.68;;;2.20;;
9042;SDS011;4556;49.150;8.808;2022-08-21T12:15:39;4.43;;;2.08;;
9042;SDS011;4556;49.150;8.808;2022-08-21T12:18:18;5.22;;;2.00;;
9042;SDS011;4556;49.150;8.808;2022-08-21T12:23:46;5.72;;;2.35;;
9042;SDS011;4556;49.150;8.808;2022-08-21T12:26:22;4.88;;;2.13;;
9042;SDS011;4556;49.150;8.808;2022-08-21T12:28:51;6.18;;;2.13;;
9042;SDS011;4556;49.150;8.808;2022-08-21T12:31:46;7.43;;;2.13;;
9042;SDS011;4556;49.150;8.808;2022-08-21T12:34:20;4.63;;;2.45;;
9042;SDS011;4556;49.150;8.808;2022-08-21T12:36:53;5.78;;;2.53;;
9042;SDS011;4556;49.150;8.808;2022-08-21T12:39:26;4.88;;;2.10;;
9042;SDS011;4556;49.150;8.808;2022-08-21T12:42:00;3.75;;;2.30;;
9042;SDS011;4556;49.150;8.808;2022-08-21T12:44:34;4.32;;;1.95;;
9042;SDS011;4556;49.150;8.808;2022-08-21T12:47:05;6.07;;;2.42;;
9042;SDS011;4556;49.150;8.808;2022-08-21T12:49:42;5.95;;;2.20;;
9042;SDS011;4556;49.150;8.808;2022-08-21T12:52:16;5.18;;;2.35;;
9042;SDS011;4556;49.150;8.808;2022-08-21T12:54:48;3.70;;;2.40;;
9042;SDS011;4556;49.150;8.808;2022-08-21T12:57:20;5.15;;;2.00;;
9042;SDS011;4556;49.150;8.808;2022-08-21T12:59:54;4.80;;;2.33;;
9042;SDS011;4556;49.150;8.808;2022-08-21T13:02:25;5.93;;;2.00;;
9042;SDS011;4556;49.150;8.808;2022-08-21T13:04:56;3.20;;;1.90;;
9042;SDS011;4556;49.150;8.808;2022-08-21T13:07:26;3.08;;;1.90;;
9042;SDS011;4556;49.150;8.808;2022-08-21T13:09:57;4.95;;;2.20;;
9042;SDS011;4556;49.150;8.808;2022-08-21T13:12:27;5.13;;;2.30;;
9042;SDS011;4556;49.150;8.808;2022-08-21T13:14:56;5.50;;;2.40;;
9042;SDS011;4556;49.150;8.808;2022-08-21T13:17:26;6.95;;;2.33;;
9042;SDS011;4556;49.150;8.808;2022-08-21T13:19:57;2.55;;;1.60;;
9042;SDS011;4556;49.150;8.808;2022-08-21T13:22:26;8.82;;;2.40;;
9042;SDS011;4556;49.150;8.808;2022-08-21T13:24:55;4.43;;;1.88;;
9042;SDS011;4556;49.150;8.808;2022-08-21T13:27:29;4.28;;;2.15;;
9042;SDS011;4556;49.150;8.808;2022-08-21T13:30:01;4.93;;;2.00;;
9042;SDS011;4556;49.150;8.808;2022-08-21T13:32:35;2.58;;;1.90;;
9042;SDS011;4556;49.150;8.808;2022-08-21T13:35:10;4.95;;;2.30;;
9042;SDS011;4556;49.150;8.808;2022-08-21T13:37:40;4.07;;;2.33;;
9042;SDS011;4556;49.150;8.808;2022-08-21T13:40:09;5.07;;;2.40;;
9042;SDS011;4556;49.150;8.808;2022-08-21T13:42:41;4.22;;;2.28;;
9042;SDS011;4556;49.150;8.808;2022-08-21T13:45:12;3.92;;;2.45;;
9042;SDS011;4556;49.150;8.808;2022-08-21T13:47:41;7.22;;;2.22;;
9042;SDS011;4556;49.150;8.808;2022-08-21T13:50:12;3.72;;;1.80;;
9042;SDS011;4556;49.150;8.808;2022-08-21T13:52:53;5.13;;;2.40;;
9042;SDS011;4556;49.150;8.808;2022-08-21T13:55:23;7.25;;;2.63;;
9042;SDS011;4556;49.150;8.808;2022-08-21T13:57:59;4.63;;;2.00;;
9042;SDS011;4556;49.150;8.808;2022-08-21T14:00:29;6.00;;;2.28;;
9042;SDS011;4556;49.150;8.808;2022-08-21T14:03:01;3.40;;;2.23;;
9042;SDS011;4556;49.150;8.808;2022-08-21T14:05:32;5.57;;;2.30;;
9042;SDS011;4556;49.150;8.808;2022-08-21T14:08:04;5.40;;;2.28;;
9042;SDS011;4556;49.150;8.808;2022-08-21T14:10:35;4.93;;;2.40;;
9042;SDS011;4556;49.150;8.808;2022-08-21T14:13:26;4.68;;;1.88;;
9042;SDS011;4556;49.150;8.808;2022-08-21T14:15:59;3.75;;;2.47;;
9042;SDS011;4556;49.150;8.808;2022-08-21T14:18:29;3.38;;;2.13;;
9042;SDS011;4556;49.150;8.808;2022-08-21T14:21:03;3.90;;;1.95;;
9042;SDS011;4556;49.150;8.808;2022-08-21T14:23:31;4.78;;;2.20;;
9042;SDS011;4556;49.150;8.808;2022-08-21T14:25:59;5.30;;;2.00;;
9042;SDS011;4556;49.150;8.808;2022-08-21T14:28:29;3.47;;;1.92;;
9042;SDS011;4556;49.150;8.808;2022-08-21T14:30:58;3.78;;;1.88;;
9042;SDS011;4556;49.150;8.808;2022-08-21T14:33:40;5.47;;;2.00;;
9042;SDS011;4556;49.150;8.808;2022-08-21T14:36:07;3.97;;;1.80;;
9042;SDS011;4556;49.150;8.808;2022-08-21T14:38:35;5.35;;;1.95;;
9042;SDS011;4556;49.150;8.808;2022-08-21T14:41:07;4.82;;;1.85;;
9042;SDS011;4556;49.150;8.808;2022-08-21T14:43:42;3.53;;;1.77;;
9042;SDS011;4556;49.150;8.808;2022-08-21T14:46:10;4.03;;;1.90;;
9042;SDS011;4556;49.150;8.808;2022-08-21T14:48:38;4.72;;;2.10;;
9042;SDS011;4556;49.150;8.808;2022-08-21T14:51:05;3.20;;;1.92;;
9042;SDS011;4556;49.150;8.808;2022-08-21T14:53:32;2.63;;;1.60;;
9042;SDS011;4556;49.150;8.808;2022-08-21T14:56:00;2.30;;;1.52;;
9042;SDS011;4556;49.150;8.808;2022-08-21T14:58:31;3.35;;;1.65;;
9042;SDS011;4556;49.150;8.808;2022-08-21T15:01:00;3.83;;;1.88;;
9042;SDS011;4556;49.150;8.808;2022-08-21T15:03:28;4.30;;;1.73;;
9042;SDS011;4556;49.150;8.808;2022-08-21T15:05:56;4.57;;;1.83;;
9042;SDS011;4556;49.150;8.808;2022-08-21T15:08:24;4.78;;;2.08;;
9042;SDS011;4556;49.150;8.808;2022-08-21T15:10:51;4.57;;;1.88;;
9042;SDS011;4556;49.150;8.808;2022-08-21T15:13:19;3.80;;;1.80;;
9042;SDS011;4556;49.150;8.808;2022-08-21T15:15:47;4.13;;;1.70;;
9042;SDS011;4556;49.150;8.808;2022-08-21T15:18:19;4.07;;;1.95;;
9042;SDS011;4556;49.150;8.808;2022-08-21T15:20:46;3.55;;;1.88;;
9042;SDS011;4556;49.150;8.808;2022-08-21T15:23:13;3.35;;;1.77;;
9042;SDS011;4556;49.150;8.808;2022-08-21T15:25:41;5.80;;;2.05;;
9042;SDS011;4556;49.150;8.808;2022-08-21T15:28:09;3.88;;;2.00;;
9042;SDS011;4556;49.150;8.808;2022-08-21T15:30:37;5.37;;;1.80;;
9042;SDS011;4556;49.150;8.808;2022-08-21T15:33:06;4.40;;;2.00;;
9042;SDS011;4556;49.150;8.808;2022-08-21T15:35:35;4.73;;;2.00;;
9042;SDS011;4556;49.150;8.808;2022-08-21T15:38:04;4.20;;;1.70;;
9042;SDS011;4556;49.150;8.808;2022-08-21T15:40:31;3.27;;;1.60;;